Time;durP1;ratioP1;P1;durP2;ratioP2;P2;SDS_P1;SDS_P2;PMS_P1;PMS_P2;Temp;Humidity;BMP_temperature;BMP_pressure;BME280_temperature;BME280_humidity;BME280_pressure;Samples;Min_cycle;Max_cycle;Signal;HPM_P1;HPM_P2
2022/06/23 00:02:25;;;;;;;4.33;3.67;;;;;;;13.07;100.00;101150.72;7397606;19;20415;-59
2022/06/23 00:05:00;;;;;;;6.80;3.00;;;;;;;13.04;100.00;101145.44;7387644;19;20946;-60
2022/06/23 00:07:32;;;;;;;7.40;4.20;;;;;;;13.04;100.00;101144.53;7394690;19;20801;-60
2022/06/23 00:10:14;;;;;;;7.50;3.73;;;;;;;13.00;100.00;101138.34;7388331;19;21019;-60
2022/06/23 00:12:45;;;;;;;5.07;3.37;;;;;;;12.95;100.00;101140.78;7394395;19;20375;-60
2022/06/23 00:15:39;;;;;;;5.87;3.83;;;;;;;13.04;100.00;101144.53;7388751;19;20533;-59
2022/06/23 00:18:18;;;;;;;5.40;3.30;;;;;;;12.98;100.00;101142.63;7386759;19;20408;-60
2022/06/23 00:20:52;;;;;;;6.20;3.40;;;;;;;12.91;100.00;101140.59;7392863;19;20422;-59
2022/06/23 00:23:24;;;;;;;6.30;3.60;;;;;;;12.90;100.00;101138.81;7385229;19;20429;-60
2022/06/23 00:26:00;;;;;;;7.53;3.93;;;;;;;12.83;100.00;101136.00;7394137;19;20405;-60
2022/06/23 00:28:32;;;;;;;7.00;3.97;;;;;;;12.85;100.00;101137.75;7389333;19;20417;-60
2022/06/23 00:31:03;;;;;;;7.00;4.40;;;;;;;12.82;100.00;101123.00;7391861;19;20410;-60
2022/06/23 00:33:44;;;;;;;6.50;4.10;;;;;;;12.86;100.00;101126.59;7386651;19;20421;-60
2022/06/23 00:36:38;;;;;;;6.30;4.17;;;;;;;12.92;100.00;101130.28;7392720;19;20408;-59
2022/06/23 00:39:21;;;;;;;7.27;4.20;;;;;;;13.03;100.00;101140.19;7385784;19;20411;-60
2022/06/23 00:41:53;;;;;;;4.97;3.70;;;;;;;12.92;100.00;101134.59;7391901;19;20457;-59
2022/06/23 00:44:28;;;;;;;6.30;3.90;;;;;;;12.95;100.00;101134.72;7387014;19;20530;-60
2022/06/23 00:46:59;;;;;;;6.27;4.27;;;;;;;12.88;100.00;101138.78;7393678;19;20390;-59
2022/06/23 00:49:33;;;;;;;9.37;4.13;;;;;;;12.79;100.00;101146.19;7386358;19;20422;-59
2022/06/23 00:52:12;;;;;;;6.47;4.70;;;;;;;12.99;100.00;101154.72;7393680;19;20393;-60
2022/06/23 00:54:47;;;;;;;7.13;4.53;;;;;;;13.09;100.00;101154.22;7388122;19;20441;-59
2022/06/23 00:57:25;;;;;;;6.63;4.20;;;;;;;13.09;100.00;101151.66;7399528;19;20397;-60
2022/06/23 00:59:57;;;;;;;5.00;4.00;;;;;;;12.77;100.00;101156.47;7392145;19;20457;-60
2022/06/23 01:02:30;;;;;;;5.37;4.20;;;;;;;12.79;100.00;101160.03;7400424;19;20422;-60
2022/06/23 01:05:04;;;;;;;6.10;4.17;;;;;;;12.92;100.00;101165.69;7393015;19;20428;-60
2022/06/23 01:07:44;;;;;;;6.97;4.70;;;;;;;12.95;100.00;101173.56;7400141;19;20376;-60
2022/06/23 01:10:22;;;;;;;9.07;5.37;;;;;;;12.70;100.00;101175.19;7388593;19;20417;-60
2022/06/23 01:12:57;;;;;;;7.70;5.37;;;;;;;12.61;100.00;101180.88;7398753;19;20475;-60
2022/06/23 01:15:32;;;;;;;6.80;4.63;;;;;;;12.62;100.00;101181.78;7387531;19;20512;-60
2022/06/23 01:18:05;;;;;;;8.47;5.43;;;;;;;12.67;100.00;101177.66;7391426;19;20821;-60
2022/06/23 01:20:41;;;;;;;9.87;5.53;;;;;;;12.53;100.00;101177.09;7396373;19;20923;-60
2022/06/23 01:23:43;;;;;;;8.63;4.93;;;;;;;12.55;100.00;101185.81;7391278;19;20750;-60
2022/06/23 01:26:36;;;;;;;9.27;4.20;;;;;;;12.41;100.00;101177.50;7399658;19;20899;-61
2022/06/23 01:29:13;;;;;;;6.77;4.60;;;;;;;12.63;100.00;101179.25;7392818;19;20760;-59
2022/06/23 01:31:45;;;;;;;7.30;5.33;;;;;;;12.63;100.00;101183.53;7397152;19;20419;-60
2022/06/23 01:34:23;;;;;;;7.97;4.70;;;;;;;12.34;100.00;101186.69;7392201;19;20409;-60
2022/06/23 01:36:59;;;;;;;7.80;4.83;;;;;;;12.43;100.00;101186.19;7395275;19;20947;-60
2022/06/23 01:39:32;;;;;;;8.10;5.07;;;;;;;12.48;100.00;101195.03;7392415;19;20419;-60
2022/06/23 01:42:04;;;;;;;6.37;4.70;;;;;;;12.40;100.00;101196.41;7399862;19;20406;-60
2022/06/23 01:44:46;;;;;;;5.93;4.33;;;;;;;12.11;100.00;101194.38;7393217;19;20410;-59
2022/06/23 01:47:21;;;;;;;6.50;5.07;;;;;;;12.18;100.00;101195.53;7399718;19;20734;-60
2022/06/23 01:49:55;;;;;;;9.87;5.73;;;;;;;12.02;100.00;101188.78;7390379;19;20430;-60
2022/06/23 01:52:24;;;;;;;11.50;5.43;;;;;;;11.96;100.00;101179.06;7399277;19;20741;-60
2022/06/23 01:54:59;;;;;;;7.37;5.50;;;;;;;11.99;100.00;101179.19;7392819;19;20413;-60
2022/06/23 01:57:33;;;;;;;8.27;5.87;;;;;;;12.00;100.00;101169.75;7396907;19;20472;-59
2022/06/23 02:00:13;;;;;;;8.23;5.73;;;;;;;12.18;100.00;101169.66;7391063;19;20430;-60
2022/06/23 02:02:51;;;;;;;7.93;6.23;;;;;;;12.16;100.00;101166.13;7398806;19;20406;-60
2022/06/23 02:05:30;;;;;;;9.53;5.57;;;;;;;12.08;100.00;101163.22;7379826;19;20414;-60
2022/06/23 02:08:04;;;;;;;11.73;7.37;;;;;;;12.08;100.00;101163.22;7391215;19;20400;-61
2022/06/23 02:10:37;;;;;;;10.23;7.10;;;;;;;12.10;100.00;101171.06;7396509;19;20414;-60
2022/06/23 02:13:13;;;;;;;14.60;8.10;;;;;;;12.12;100.00;101180.66;7392540;19;20384;-61
2022/06/23 02:15:53;;;;;;;11.03;7.87;;;;;;;12.16;100.00;101179.06;7397868;19;20480;-60
2022/06/23 02:18:27;;;;;;;13.37;9.33;;;;;;;12.19;100.00;101180.91;7391731;19;20426;-60
2022/06/23 02:21:19;;;;;;;15.57;9.50;;;;;;;12.26;100.00;101177.75;7397778;19;20496;-61
2022/06/23 02:23:52;;;;;;;14.10;10.10;;;;;;;12.28;100.00;101182.16;7395056;19;20952;-60
2022/06/23 02:26:25;;;;;;;16.47;9.97;;;;;;;12.38;100.00;101183.44;7398207;19;20393;-60
2022/06/23 02:29:00;;;;;;;15.53;10.10;;;;;;;12.38;100.00;101193.78;7390989;19;20410;-60
2022/06/23 02:31:37;;;;;;;14.37;9.53;;;;;;;12.29;100.00;101194.28;7395819;19;20755;-60
2022/06/23 02:34:12;;;;;;;13.47;8.93;;;;;;;12.23;100.00;101194.03;7390520;19;20414;-60
2022/06/23 02:37:00;;;;;;;19.87;10.03;;;;;;;12.19;100.00;101194.69;7397087;19;20381;-60
2022/06/23 02:39:35;;;;;;;18.10;10.97;;;;;;;12.22;100.00;101202.59;7389968;19;20420;-61
2022/06/23 02:42:15;;;;;;;21.70;11.33;;;;;;;12.26;100.00;101208.78;7397311;19;20397;-60
2022/06/23 02:44:55;;;;;;;15.00;10.57;;;;;;;12.26;100.00;101208.78;7391116;19;20420;-60
2022/06/23 02:47:40;;;;;;;14.53;9.70;;;;;;;12.29;100.00;101204.63;7397435;19;20392;-60
2022/06/23 02:50:22;;;;;;;13.57;10.30;;;;;;;12.15;100.00;101209.22;7388940;19;20595;-60
2022/06/23 02:53:20;;;;;;;18.57;11.90;;;;;;;12.19;100.00;101204.19;7397421;19;20444;-60
2022/06/23 02:56:17;;;;;;;19.90;12.13;;;;;;;12.17;100.00;101208.38;7396278;19;20950;-60
2022/06/23 02:58:49;;;;;;;17.40;11.83;;;;;;;12.16;100.00;101212.69;7390945;19;20423;-61
2022/06/23 03:01:23;;;;;;;18.93;11.30;;;;;;;12.15;100.00;101206.63;7396296;19;20430;-61
2022/06/23 03:04:04;;;;;;;17.30;11.27;;;;;;;12.21;100.00;101218.06;7385607;19;20416;-60
2022/06/23 03:06:40;;;;;;;16.00;11.63;;;;;;;12.32;100.00;101216.81;7396806;19;20406;-60
2022/06/23 03:09:13;;;;;;;15.33;10.10;;;;;;;12.45;100.00;101210.41;7382100;19;20435;-60
2022/06/23 03:11:57;;;;;;;48.53;27.60;;;;;;;12.41;100.00;101206.81;7395022;19;20423;-60
2022/06/23 03:14:36;;;;;;;73.57;41.23;;;;;;;12.45;100.00;101210.41;7387883;19;20502;-61
2022/06/23 03:17:14;;;;;;;69.70;38.83;;;;;;;12.52;100.00;101211.56;7395368;19;20384;-60
2022/06/23 03:19:51;;;;;;;29.33;17.10;;;;;;;12.44;100.00;101213.84;7387616;19;20963;-60
2022/06/23 03:22:24;;;;;;;25.17;14.80;;;;;;;12.43;100.00;101217.25;7395925;19;20384;-61
2022/06/23 03:24:59;;;;;;;30.20;19.60;;;;;;;12.49;100.00;101211.44;7389580;19;20423;-60
2022/06/23 03:27:32;;;;;;;33.00;20.67;;;;;;;12.51;100.00;101215.84;7396370;19;20388;-61
2022/06/23 03:30:05;;;;;;;31.70;18.53;;;;;;;12.46;100.00;101222.53;7387803;19;20431;-60
2022/06/23 03:32:38;;;;;;;32.60;16.60;;;;;;;12.63;100.00;101228.44;7396173;19;20910;-60
2022/06/23 03:35:17;;;;;;;39.00;22.20;;;;;;;12.92;100.00;101227.84;7388313;19;20415;-61
2022/06/23 03:37:52;;;;;;;35.20;19.90;;;;;;;13.08;100.00;101234.50;7394739;19;20384;-61
2022/06/23 03:43:18;;;;;;;83.57;48.43;;;;;;;13.34;100.00;101266.59;7388464;19;20385;-59
2022/06/23 03:45:51;;;;;;;81.40;48.13;;;;;;;13.61;100.00;101278.00;7395700;19;20902;-60
2022/06/23 03:48:25;;;;;;;49.37;30.67;;;;;;;13.41;100.00;101282.38;7388750;19;20404;-59
2022/06/23 03:51:01;;;;;;;53.10;30.60;;;;;;;13.45;100.00;101294.63;7396851;19;20424;-60
2022/06/23 03:53:33;;;;;;;44.23;25.67;;;;;;;13.50;100.00;101294.00;7389476;19;20418;-60
2022/06/23 03:56:05;;;;;;;33.50;20.93;;;;;;;13.38;100.00;101298.69;7395252;19;20408;-60
2022/06/23 03:58:41;;;;;;;34.90;19.87;;;;;;;13.23;100.00;101296.41;7387578;19;20528;-60
2022/06/23 04:01:18;;;;;;;31.33;20.13;;;;;;;13.54;100.00;101295.00;7393296;19;20422;-60
2022/06/23 04:03:51;;;;;;;22.30;14.73;;;;;;;13.68;100.00;101289.47;7387284;19;20425;-60
2022/06/23 04:06:35;;;;;;;26.07;15.17;;;;;;;13.61;100.00;101294.44;7394619;19;20385;-61
2022/06/23 04:09:08;;;;;;;21.97;12.63;;;;;;;13.77;100.00;101302.78;7388471;19;20405;-59
2022/06/23 04:11:48;;;;;;;23.60;13.50;;;;;;;13.90;100.00;101312.78;7393222;19;20483;-60
2022/06/23 04:14:43;;;;;;;21.27;11.60;;;;;;;13.83;100.00;101310.78;7387919;19;20989;-59
2022/06/23 04:17:18;;;;;;;21.40;11.40;;;;;;;13.73;100.00;101311.25;7394097;19;20728;-60
2022/06/23 04:19:51;;;;;;;17.47;10.37;;;;;;;13.81;100.00;101308.97;7381193;19;20406;-60
2022/06/23 04:22:27;;;;;;;14.90;10.03;;;;;;;14.04;100.00;101313.28;7394332;19;20393;-61
2022/06/23 04:25:01;;;;;;;14.60;9.30;;;;;;;14.00;100.00;101318.31;7384130;19;20444;-60
2022/06/23 04:27:34;;;;;;;12.63;8.20;;;;;;;13.95;100.00;101320.72;7394322;19;20800;-59
2022/06/23 04:30:04;;;;;;;14.70;7.20;;;;;;;13.97;100.00;101318.19;7385134;19;20846;-59
2022/06/23 04:32:39;;;;;;;14.47;7.20;;;;;;;14.04;100.00;101320.19;7397385;19;20467;-60
2022/06/23 04:35:17;;;;;;;15.10;7.47;;;;;;;13.99;100.00;101316.53;7387619;19;20441;-60
2022/06/23 04:37:58;;;;;;;12.83;6.67;;;;;;;14.07;100.00;101320.31;7393235;19;20391;-60
2022/06/23 04:40:32;;;;;;;11.73;6.70;;;;;;;14.14;100.00;101324.88;7391433;19;20442;-61
2022/06/23 04:43:05;;;;;;;8.73;6.20;;;;;;;14.08;100.00;101335.03;7379144;19;20395;-61
2022/06/23 04:45:40;;;;;;;10.53;7.13;;;;;;;14.12;100.00;101331.75;7393368;19;20414;-61
2022/06/23 04:48:18;;;;;;;10.80;7.33;;;;;;;14.09;100.00;101343.72;7379317;19;20399;-59
2022/06/23 04:50:51;;;;;;;30.33;21.73;;;;;;;14.20;100.00;101341.50;7391528;19;20413;-59
2022/06/23 04:53:41;;;;;;;19.90;13.93;;;;;;;14.23;100.00;101341.59;7386545;19;20415;-60
2022/06/23 04:56:20;;;;;;;8.97;5.93;;;;;;;14.16;100.00;101331.00;7393722;19;20459;-60
2022/06/23 04:58:53;;;;;;;17.80;12.27;;;;;;;14.18;100.00;101344.94;7385601;19;20937;-59
2022/06/23 05:01:25;;;;;;;16.43;12.07;;;;;;;14.25;100.00;101345.16;7391787;19;20459;-59
2022/06/23 05:03:58;;;;;;;19.77;10.07;;;;;;;14.25;100.00;101345.16;7383722;19;20482;-59
2022/06/23 05:06:36;;;;;;;10.50;6.30;;;;;;;14.21;100.00;101332.88;7395126;19;20403;-61
2022/06/23 05:09:14;;;;;;;14.90;7.90;;;;;;;14.26;100.00;101341.72;7385465;19;20422;-60
2022/06/23 05:11:47;;;;;;;23.00;10.30;;;;;;;14.30;100.00;101338.41;7391272;19;20940;-60
2022/06/23 05:14:22;;;;;;;13.67;8.30;;;;;;;14.36;100.00;101341.22;7373066;19;20410;-61
2022/06/23 05:16:54;;;;;;;12.00;6.97;;;;;;;14.44;100.00;101336.28;7392951;19;20395;-60
2022/06/23 05:19:28;;;;;;;15.93;7.40;;;;;;;14.52;100.00;101334.84;7377447;19;20828;-60
2022/06/23 05:22:00;;;;;;;7.70;5.10;;;;;;;14.55;100.00;101339.25;7393009;19;20924;-61
2022/06/23 05:24:38;;;;;;;9.17;4.83;;;;;;;14.58;100.00;101340.25;7385904;19;20483;-61
2022/06/23 05:27:16;;;;;;;6.73;4.50;;;;;;;14.64;100.00;101338.69;7392345;19;20383;-61
2022/06/23 05:29:49;;;;;;;6.70;4.43;;;;;;;14.70;100.00;101344.09;7378587;19;20414;-61
2022/06/23 05:32:23;;;;;;;7.60;4.70;;;;;;;14.73;100.00;101339.03;7392282;19;20392;-61
2022/06/23 05:35:05;;;;;;;6.27;4.40;;;;;;;14.81;100.00;101339.28;7384237;19;20398;-61
2022/06/23 05:37:37;;;;;;;9.63;4.30;;;;;;;14.85;100.00;101344.66;7392023;19;20924;-60
2022/06/23 05:40:20;;;;;;;19.03;6.80;;;;;;;14.93;100.00;101347.50;7382471;19;20479;-61
2022/06/23 05:42:54;;;;;;;9.73;6.10;;;;;;;15.04;100.00;101337.47;7398559;19;20481;-61
2022/06/23 05:45:26;;;;;;;9.13;5.10;;;;;;;15.09;100.00;101333.28;7397896;19;20420;-60
2022/06/23 05:47:56;;;;;;;6.77;3.93;;;;;;;15.19;100.00;101344.91;7399281;19;20735;-60
2022/06/23 05:50:28;;;;;;;9.27;5.37;;;;;;;15.28;100.00;101343.41;7396407;19;20948;-61
2022/06/23 05:53:01;;;;;;;12.43;8.13;;;;;;;15.31;100.00;101346.09;7398357;19;21001;-60
2022/06/23 05:55:38;;;;;;;14.83;7.37;;;;;;;15.36;100.00;101345.44;7398130;19;20418;-60
2022/06/23 05:58:14;;;;;;;14.80;6.90;;;;;;;15.44;100.00;101356.03;7391371;19;20789;-61
2022/06/23 06:00:49;;;;;;;12.87;8.07;;;;;;;15.53;100.00;101355.44;7396773;19;20425;-61
2022/06/23 06:03:22;;;;;;;22.40;12.40;;;;;;;15.61;100.00;101347.88;7384962;19;20392;-61
2022/06/23 06:05:56;;;;;;;28.00;13.53;;;;;;;15.69;100.00;101351.59;7398886;19;20387;-61
2022/06/23 06:08:30;;;;;;;7.97;4.33;;;;;;;15.75;100.00;101349.19;7385622;19;20401;-61
2022/06/23 06:11:04;;;;;;;9.07;4.93;;;;;;;15.86;100.00;101348.63;7396048;19;20437;-61
2022/06/23 06:13:35;;;;;;;6.50;4.00;;;;;;;15.95;100.00;101353.25;7377772;19;20922;-61
2022/06/23 06:16:06;;;;;;;24.73;14.13;;;;;;;16.09;100.00;101341.50;7398446;19;20387;-62
2022/06/23 06:18:39;;;;;;;5.70;4.77;;;;;;;16.16;100.00;101338.22;7389244;19;20410;-61
2022/06/23 06:21:12;;;;;;;8.93;5.50;;;;;;;16.25;100.00;101342.81;7396087;19;20535;-60
2022/06/23 06:23:47;;;;;;;8.53;4.40;;;;;;;16.30;100.00;101335.13;7390019;19;20535;-61
2022/06/23 06:26:22;;;;;;;8.57;4.37;;;;;;;16.36;100.00;101334.44;7397868;19;20406;-61
2022/06/23 06:28:52;;;;;;;7.13;3.93;;;;;;;16.46;100.00;101331.25;7389191;19;20407;-61
2022/06/23 06:31:25;;;;;;;4.17;3.60;;;;;;;16.57;100.00;101328.91;7398774;19;20432;-61
2022/06/23 06:34:02;;;;;;;10.70;4.33;;;;;;;16.69;100.00;101329.22;7389628;19;20405;-60
2022/06/23 06:36:36;;;;;;;7.20;3.83;;;;;;;16.82;100.00;101325.19;7397910;19;20906;-61
2022/06/23 06:39:10;;;;;;;8.47;4.13;;;;;;;16.92;100.00;101318.47;7388768;19;20496;-61
2022/06/23 06:41:45;;;;;;;7.77;4.13;;;;;;;16.92;100.00;101309.81;7395398;19;20427;-62
2022/06/23 06:44:17;;;;;;;11.07;6.00;;;;;;;17.02;100.00;101298.75;7389784;19;20447;-61
2022/06/23 06:46:48;;;;;;;11.50;4.40;;;;;;;17.11;100.00;101296.38;7397628;19;20396;-61
2022/06/23 06:49:20;;;;;;;10.60;4.40;;;;;;;17.18;100.00;101291.31;7389527;19;20974;-61
2022/06/23 06:51:51;;;;;;;7.83;4.53;;;;;;;17.28;100.00;101286.34;7394073;19;20955;-62
2022/06/23 06:54:24;;;;;;;8.03;4.13;;;;;;;17.36;100.00;101283.91;7390431;19;20418;-62
2022/06/23 06:56:58;;;;;;;12.40;8.13;;;;;;;17.40;100.00;101275.28;7397106;19;20474;-61
2022/06/23 06:59:35;;;;;;;7.37;4.00;;;;;;;17.50;100.00;101267.69;7369381;19;20452;-61
2022/06/23 07:02:12;;;;;;;8.67;3.93;;;;;;;17.61;100.00;101270.50;7396732;19;20393;-62
2022/06/23 07:04:48;;;;;;;13.70;6.27;;;;;;;17.74;100.00;101271.66;7387638;19;20448;-61
2022/06/23 07:07:22;;;;;;;18.37;8.80;;;;;;;17.84;100.00;101265.75;7397950;19;20928;-61
2022/06/23 07:09:57;;;;;;;27.17;14.23;;;;;;;17.93;100.00;101263.34;7391773;19;20462;-62
2022/06/23 07:12:31;;;;;;;8.80;4.27;;;;;;;17.97;100.00;101251.22;7396598;19;20392;-62
2022/06/23 07:15:06;;;;;;;10.03;4.47;;;;;;;18.01;100.00;101254.75;7392946;19;20445;-61
2022/06/23 07:17:40;;;;;;;10.03;4.40;;;;;;;18.12;100.00;101253.28;7395903;19;20398;-62
2022/06/23 07:20:17;;;;;;;6.10;3.53;;;;;;;18.15;100.00;101232.41;7386535;19;20426;-62
2022/06/23 07:22:51;;;;;;;10.17;4.77;;;;;;;18.22;100.00;101231.69;7398064;19;20470;-61
2022/06/23 07:25:24;;;;;;;10.93;4.50;;;;;;;18.37;100.00;101232.81;7389396;19;20414;-61
2022/06/23 07:27:59;;;;;;;10.20;3.80;;;;;;;18.48;100.00;101219.94;7395890;19;20395;-61
2022/06/23 07:30:33;;;;;;;9.37;4.70;;;;;;;18.59;100.00;101210.53;7394103;19;20964;-61
2022/06/23 07:33:05;;;;;;;9.30;4.33;;;;;;;18.62;100.00;101207.09;7388442;19;20443;-61
2022/06/23 07:35:39;;;;;;;18.33;8.90;;;;;;;18.60;100.00;101190.50;7395184;19;20976;-61
2022/06/23 07:38:11;;;;;;;7.20;3.83;;;;;;;18.80;100.00;101189.91;7382492;19;20964;-61
2022/06/23 07:40:46;;;;;;;13.00;7.80;;;;;;;18.97;100.00;101177.97;7396348;19;20435;-62
2022/06/23 07:43:29;;;;;;;8.10;4.20;;;;;;;19.14;100.00;101169.50;7388630;19;20407;-61
2022/06/23 07:46:00;;;;;;;10.83;5.60;;;;;;;19.22;100.00;101162.63;7395459;19;20383;-62
2022/06/23 07:48:33;;;;;;;7.00;4.30;;;;;;;19.23;100.00;101146.06;7385476;19;20775;-61
2022/06/23 07:51:05;;;;;;;6.67;4.83;;;;;;;19.27;100.00;101142.63;7393158;19;20399;-61
2022/06/23 07:53:39;;;;;;;24.30;12.80;;;;;;;19.38;100.00;101123.59;7386393;19;20403;-62
2022/06/23 07:56:10;;;;;;;7.40;4.20;;;;;;;19.39;100.00;101117.50;7395006;19;20905;-61
2022/06/23 07:58:43;;;;;;;4.40;3.50;;;;;;;19.30;100.00;101118.25;7387403;19;20482;-62
2022/06/23 08:01:18;;;;;;;9.13;4.07;;;;;;;19.37;100.00;101125.31;7393097;19;20481;-62
2022/06/23 08:03:55;;;;;;;6.87;3.97;;;;;;;19.52;100.00;101098.44;7378964;19;20417;-61
2022/06/23 08:06:26;;;;;;;11.40;6.60;;;;;;;19.77;100.00;101092.53;7397033;19;20391;-61
2022/06/23 08:08:58;;;;;;;17.57;9.17;;;;;;;19.81;100.00;101079.53;7387845;19;20799;-61
2022/06/23 08:14:35;;;;;;;9.43;3.63;;;;;;;19.93;100.00;101064.75;7388569;19;20442;-61
2022/06/23 08:17:06;;;;;;;6.70;3.87;;;;;;;20.13;100.00;101044.00;7394572;19;20741;-61
2022/06/23 08:19:41;;;;;;;38.77;25.10;;;;;;;20.30;100.00;101020.50;7378265;19;20442;-61
2022/06/23 08:22:14;;;;;;;8.70;4.70;;;;;;;20.33;100.00;100983.88;7394177;19;20909;-61
2022/06/23 08:24:48;;;;;;;9.00;4.00;;;;;;;20.48;100.00;100990.03;7387637;19;20444;-62
2022/06/23 08:27:41;;;;;;;14.87;9.67;;;;;;;20.63;100.00;100966.50;7393851;19;20387;-62
2022/06/23 08:30:16;;;;;;;11.00;5.30;;;;;;;20.67;100.00;100935.97;7387579;19;20455;-61
2022/06/23 08:32:49;;;;;;;13.77;8.53;;;;;;;20.81;100.00;100932.50;7394017;19;20390;-62
2022/06/23 08:35:23;;;;;;;11.77;3.70;;;;;;;20.87;100.00;100907.16;7385882;19;20463;-61
2022/06/23 08:37:56;;;;;;;9.47;6.50;;;;;;;20.94;100.00;100875.72;7395430;19;20788;-62
2022/06/23 08:40:34;;;;;;;5.63;3.80;;;;;;;20.87;100.00;100828.50;7391496;19;20977;-62
2022/06/23 08:43:15;;;;;;;10.13;5.20;;;;;;;20.99;100.00;100816.28;7387041;19;20824;-61
2022/06/23 08:45:53;;;;;;;8.87;5.10;;;;;;;21.13;100.00;100772.53;7392480;19;20470;-61
2022/06/23 08:48:26;;;;;;;9.40;6.90;;;;;;;21.34;100.00;100768.16;7384073;19;20427;-61
2022/06/23 08:50:59;;;;;;;6.80;3.80;;;;;;;21.42;100.00;100719.13;7391851;19;20411;-62
2022/06/23 08:53:36;;;;;;;9.10;4.33;;;;;;;21.53;100.00;100724.31;7380520;19;20439;-61
2022/06/23 08:56:08;;;;;;;14.03;5.03;;;;;;;21.59;100.00;100733.94;7391412;19;21234;-62
2022/06/23 08:58:42;;;;;;;8.23;4.17;;;;;;;21.67;100.00;100768.00;7385506;19;20455;-62
2022/06/23 09:01:17;;;;;;;14.23;6.53;;;;;;;21.79;100.00;100840.66;7390793;19;20423;-62
2022/06/23 09:03:54;;;;;;;6.13;3.23;;;;;;;21.87;100.00;100917.63;7385842;19;20414;-62
2022/06/23 09:06:35;;;;;;;11.30;5.87;;;;;;;21.85;100.00;101016.56;7395961;19;20956;-61
2022/06/23 09:09:12;;;;;;;8.13;3.63;;;;;;;21.87;100.00;101038.44;7384280;19;20430;-61
2022/06/23 09:11:49;;;;;;;11.83;3.60;;;;;;;22.01;100.00;101045.41;7392723;19;20419;-62
2022/06/23 09:14:37;;;;;;;9.40;5.00;;;;;;;22.19;100.00;101071.66;7388707;19;20508;-62
2022/06/23 09:17:21;;;;;;;8.70;4.40;;;;;;;22.37;100.00;101073.38;7398416;19;20394;-62
2022/06/23 09:20:00;;;;;;;21.90;11.27;;;;;;;22.49;100.00;101058.44;7390835;19;20447;-62
2022/06/23 09:22:53;;;;;;;7.53;4.63;;;;;;;22.46;100.00;101033.03;7400861;19;20393;-62
2022/06/23 09:25:32;;;;;;;10.10;3.40;;;;;;;22.57;100.00;100998.00;7393019;19;20434;-62
2022/06/23 09:28:17;;;;;;;33.97;19.20;;;;;;;22.61;100.00;100984.81;7389183;19;20422;-62
2022/06/23 09:30:59;;;;;;;19.43;14.37;;;;;;;22.72;100.00;100982.13;7393716;19;20812;-61
2022/06/23 09:33:42;;;;;;;8.53;5.00;;;;;;;22.86;100.00;100982.06;7387727;19;20407;-62
2022/06/23 09:36:36;;;;;;;9.07;5.90;;;;;;;22.98;100.00;100972.34;7397035;19;20387;-62
2022/06/23 09:39:35;;;;;;;16.40;7.40;;;;;;;23.01;100.00;100962.69;7390845;19;21133;-62
2022/06/23 09:42:49;;;;;;;6.70;3.70;;;;;;;23.15;100.00;100962.59;7398022;19;20411;-62
2022/06/23 09:45:33;;;;;;;11.03;5.97;;;;;;;23.18;100.00;100956.44;7389125;19;20410;-61
2022/06/23 09:48:16;;;;;;;10.20;4.03;;;;;;;23.29;100.00;100946.69;7391542;19;20390;-61
2022/06/23 09:51:15;;;;;;;18.57;9.67;;;;;;;23.39;100.00;100952.81;7395015;19;20968;-62
2022/06/23 09:54:06;;;;;;;18.40;9.67;;;;;;;23.15;100.00;100959.06;7389707;19;20427;-61
2022/06/23 09:57:12;;;;;;;23.73;12.93;;;;;;;23.51;100.00;100936.00;7397938;19;21096;-61
2022/06/23 10:00:02;;;;;;;11.33;6.33;;;;;;;23.70;100.00;100941.09;7390193;19;20439;-61
2022/06/23 10:02:42;;;;;;;12.70;6.93;;;;;;;23.78;100.00;100943.66;7398304;19;20949;-62
2022/06/23 10:05:39;;;;;;;10.20;5.53;;;;;;;23.86;100.00;100947.97;7388509;19;20954;-62
2022/06/23 10:08:21;;;;;;;7.67;3.60;;;;;;;23.60;100.00;100946.44;7388662;19;20914;-62
2022/06/23 10:11:00;;;;;;;26.33;14.57;;;;;;;23.99;100.00;100937.25;7393541;19;20423;-61
2022/06/23 10:13:42;;;;;;;20.40;11.00;;;;;;;24.19;100.00;100952.88;7392932;19;20407;-62
2022/06/23 10:16:25;;;;;;;15.03;6.30;;;;;;;24.20;100.00;100956.41;7401724;19;20400;-63
2022/06/23 10:19:30;;;;;;;22.70;11.27;;;;;;;23.96;100.00;100954.00;7388426;19;20443;-61
2022/06/23 10:22:09;;;;;;;14.07;7.80;;;;;;;24.07;100.00;100951.28;7395847;19;20406;-62
2022/06/23 10:24:55;;;;;;;36.50;16.27;;;;;;;24.31;100.00;100940.44;7390786;19;20490;-62
2022/06/23 10:27:37;;;;;;;9.23;4.83;;;;;;;24.53;100.00;100938.38;7397042;19;20383;-62
2022/06/23 10:30:14;;;;;;;11.30;6.10;;;;;;;24.73;100.00;100935.47;7390639;19;20434;-62
2022/06/23 10:33:22;;;;;;;13.43;7.00;;;;;;;24.88;100.00;100939.69;7391069;19;20375;-61
2022/06/23 10:36:02;;;;;;;42.80;21.80;;;;;;;25.02;100.00;100941.25;7400365;19;20467;-62
2022/06/23 10:38:48;;;;;;;21.80;11.30;;;;;;;25.21;100.00;100952.34;7391443;19;20490;-62
2022/06/23 10:41:53;;;;;;;18.97;9.20;;;;;;;25.34;100.00;100945.97;7395680;19;20764;-63
2022/06/23 10:44:41;;;;;;;14.30;7.20;;;;;;;25.14;100.00;100935.78;7391049;19;20486;-62
2022/06/23 10:47:22;;;;;;;16.10;8.00;;;;;;;25.40;100.00;100936.22;7396057;19;20415;-62
2022/06/23 10:50:06;;;;;;;15.40;8.60;;;;;;;25.00;98.28;100945.66;7388140;19;20497;-61
2022/06/23 10:53:16;;;;;;;13.30;6.93;;;;;;;25.29;100.00;100939.94;7396851;19;20733;-62
2022/06/23 10:56:01;;;;;;;9.53;5.20;;;;;;;25.54;100.00;100928.97;7396954;19;20403;-63
2022/06/23 10:59:11;;;;;;;19.23;10.30;;;;;;;25.69;100.00;100917.22;7388842;19;20419;-63
2022/06/23 11:01:50;;;;;;;49.33;24.60;;;;;;;25.55;100.00;100921.91;7393150;19;21019;-63
2022/06/23 11:04:37;;;;;;;11.63;6.53;;;;;;;25.67;99.49;100928.72;7388256;19;20403;-62
2022/06/23 11:07:30;;;;;;;13.43;7.53;;;;;;;25.13;88.95;100936.66;7397149;19;20442;-62
2022/06/23 11:10:08;;;;;;;10.83;5.73;;;;;;;25.00;87.76;100929.81;7388266;19;20502;-62
2022/06/23 11:12:53;;;;;;;12.00;5.47;;;;;;;25.25;89.30;100927.66;7395981;19;20384;-61
2022/06/23 11:15:28;;;;;;;22.47;12.53;;;;;;;25.59;92.25;100915.66;7389386;19;20411;-62
2022/06/23 11:18:23;;;;;;;15.97;8.00;;;;;;;25.72;93.13;100917.19;7388018;19;20457;-64
2022/06/23 11:21:07;;;;;;;8.33;4.03;;;;;;;25.83;95.37;100909.03;7394487;19;20818;-62
2022/06/23 11:23:42;;;;;;;25.87;14.90;;;;;;;25.94;98.17;100911.44;7389563;19;20751;-62
2022/06/23 11:26:21;;;;;;;10.00;5.00;;;;;;;26.07;97.08;100911.19;7395689;19;20739;-62
2022/06/23 11:29:02;;;;;;;9.20;5.47;;;;;;;25.42;84.96;100918.59;7388351;19;20414;-62
2022/06/23 11:31:41;;;;;;;8.67;4.77;;;;;;;25.64;86.56;100924.38;7393723;19;20409;-61
2022/06/23 11:34:49;;;;;;;10.10;6.10;;;;;;;26.01;80.15;100928.06;7388646;19;20399;-62
2022/06/23 11:37:35;;;;;;;12.23;7.00;;;;;;;25.86;78.50;100921.31;7393922;19;20431;-61
2022/06/23 11:40:22;;;;;;;15.50;8.23;;;;;;;25.98;82.78;100915.78;7384613;19;20447;-61
2022/06/23 11:43:08;;;;;;;5.57;3.47;;;;;;;25.72;83.65;100903.97;7393482;19;20962;-62
2022/06/23 11:45:49;;;;;;;13.37;7.20;;;;;;;26.10;86.36;100905.88;7394571;19;20423;-63
2022/06/23 11:48:42;;;;;;;7.90;4.37;;;;;;;26.27;79.51;100914.34;7379831;19;20380;-63
2022/06/23 11:51:23;;;;;;;14.33;7.10;;;;;;;26.35;79.23;100910.66;7393237;19;20419;-62
2022/06/23 11:54:04;;;;;;;10.23;4.67;;;;;;;26.51;74.42;100906.75;7386240;19;20430;-62
2022/06/23 11:56:52;;;;;;;9.10;4.13;;;;;;;26.66;73.51;100912.63;7394219;19;20407;-63
2022/06/23 11:59:42;;;;;;;5.90;3.77;;;;;;;26.71;77.04;100915.16;7383005;19;20494;-62
2022/06/23 12:02:32;;;;;;;9.37;3.63;;;;;;;26.76;70.09;100911.47;7392817;19;20379;-62
2022/06/23 12:05:11;;;;;;;14.03;4.83;;;;;;;26.78;72.39;100908.81;7378529;19;20434;-62
2022/06/23 12:08:17;;;;;;;13.97;8.73;;;;;;;27.05;70.61;100907.28;7393118;19;20376;-63
2022/06/23 12:10:49;;;;;;;12.50;5.70;;;;;;;27.04;63.62;100913.50;7391295;19;20514;-62